sensor_id;sensor_type;location;lat;lon;timestamp;P1;durP1;ratioP1;P2;durP2;ratioP2
45684;SDS011;46836;48.388;16.210;2022-07-29T00:01:01;6.33;;;4.23;;
45684;SDS011;46836;48.388;16.210;2022-07-29T00:03:28;5.63;;;5.10;;
45684;SDS011;46836;48.388;16.210;2022-07-29T00:05:55;5.23;;;4.60;;
45684;SDS011;46836;48.388;16.210;2022-07-29T00:08:22;7.10;;;4.43;;
45684;SDS011;46836;48.388;16.210;2022-07-29T00:10:50;6.40;;;5.03;;
45684;SDS011;46836;48.388;16.210;2022-07-29T00:13:17;5.53;;;5.03;;
45684;SDS011;46836;48.388;16.210;2022-07-29T00:15:58;5.03;;;4.30;;
45684;SDS011;46836;48.388;16.210;2022-07-29T00:18:30;4.50;;;4.20;;
45684;SDS011;46836;48.388;16.210;2022-07-29T00:20:58;6.00;;;5.50;;
45684;SDS011;46836;48.388;16.210;2022-07-29T00:23:25;6.23;;;5.63;;
45684;SDS011;46836;48.388;16.210;2022-07-29T00:25:53;5.47;;;4.93;;
45684;SDS011;46836;48.388;16.210;2022-07-29T00:28:20;5.60;;;5.07;;
45684;SDS011;46836;48.388;16.210;2022-07-29T00:30:47;7.00;;;5.03;;
45684;SDS011;46836;48.388;16.210;2022-07-29T00:33:14;6.30;;;5.03;;
45684;SDS011;46836;48.388;16.210;2022-07-29T00:35:41;6.53;;;5.37;;
45684;SDS011;46836;48.388;16.210;2022-07-29T00:38:14;7.53;;;5.20;;
45684;SDS011;46836;48.388;16.210;2022-07-29T00:40:43;6.50;;;5.90;;
45684;SDS011;46836;48.388;16.210;2022-07-29T00:43:11;6.13;;;5.60;;
45684;SDS011;46836;48.388;16.210;2022-07-29T00:45:42;5.20;;;4.77;;
45684;SDS011;46836;48.388;16.210;2022-07-29T00:48:10;7.60;;;5.60;;
45684;SDS011;46836;48.388;16.210;2022-07-29T00:50:37;7.87;;;5.93;;
45684;SDS011;46836;48.388;16.210;2022-07-29T00:53:06;6.80;;;5.70;;
45684;SDS011;46836;48.388;16.210;2022-07-29T00:55:34;9.40;;;5.33;;
45684;SDS011;46836;48.388;16.210;2022-07-29T00:58:01;6.83;;;5.10;;
45684;SDS011;46836;48.388;16.210;2022-07-29T01:00:29;7.03;;;5.73;;
45684;SDS011;46836;48.388;16.210;2022-07-29T01:02:57;6.20;;;5.60;;
45684;SDS011;46836;48.388;16.210;2022-07-29T01:05:25;5.90;;;5.40;;
45684;SDS011;46836;48.388;16.210;2022-07-29T01:08:14;6.50;;;5.50;;
45684;SDS011;46836;48.388;16.210;2022-07-29T01:10:42;12.73;;;5.70;;
45684;SDS011;46836;48.388;16.210;2022-07-29T01:13:13;6.70;;;5.60;;
45684;SDS011;46836;48.388;16.210;2022-07-29T01:15:47;8.43;;;5.70;;
45684;SDS011;46836;48.388;16.210;2022-07-29T01:18:24;6.20;;;5.60;;
45684;SDS011;46836;48.388;16.210;2022-07-29T01:26:47;5.53;;;5.03;;
45684;SDS011;46836;48.388;16.210;2022-07-29T01:29:48;7.20;;;5.13;;
45684;SDS011;46836;48.388;16.210;2022-07-29T01:32:24;6.10;;;5.50;;
45684;SDS011;46836;48.388;16.210;2022-07-29T01:40:32;5.77;;;5.27;;
45684;SDS011;46836;48.388;16.210;2022-07-29T01:43:10;9.80;;;6.00;;
45684;SDS011;46836;48.388;16.210;2022-07-29T01:45:45;6.13;;;5.40;;
45684;SDS011;46836;48.388;16.210;2022-07-29T01:48:30;11.00;;;7.07;;
45684;SDS011;46836;48.388;16.210;2022-07-29T01:51:06;6.17;;;5.57;;
45684;SDS011;46836;48.388;16.210;2022-07-29T01:53:46;6.60;;;6.00;;
45684;SDS011;46836;48.388;16.210;2022-07-29T01:56:22;7.17;;;5.77;;
45684;SDS011;46836;48.388;16.210;2022-07-29T01:58:50;6.23;;;5.70;;
45684;SDS011;46836;48.388;16.210;2022-07-29T02:01:20;5.53;;;5.00;;
45684;SDS011;46836;48.388;16.210;2022-07-29T02:03:50;5.87;;;5.37;;
45684;SDS011;46836;48.388;16.210;2022-07-29T02:06:21;6.60;;;5.60;;
45684;SDS011;46836;48.388;16.210;2022-07-29T02:08:50;5.77;;;5.37;;
45684;SDS011;46836;48.388;16.210;2022-07-29T02:11:19;6.50;;;5.80;;
45684;SDS011;46836;48.388;16.210;2022-07-29T02:13:46;6.73;;;5.63;;
45684;SDS011;46836;48.388;16.210;2022-07-29T02:16:15;6.10;;;5.43;;
45684;SDS011;46836;48.388;16.210;2022-07-29T02:18:45;6.33;;;5.73;;
45684;SDS011;46836;48.388;16.210;2022-07-29T02:21:19;6.47;;;5.77;;
45684;SDS011;46836;48.388;16.210;2022-07-29T02:23:51;7.53;;;5.60;;
45684;SDS011;46836;48.388;16.210;2022-07-29T02:26:20;6.17;;;5.50;;
45684;SDS011;46836;48.388;16.210;2022-07-29T02:28:49;7.83;;;6.20;;
45684;SDS011;46836;48.388;16.210;2022-07-29T02:31:19;6.47;;;5.90;;
45684;SDS011;46836;48.388;16.210;2022-07-29T02:33:51;7.37;;;5.53;;
45684;SDS011;46836;48.388;16.210;2022-07-29T02:36:21;6.63;;;6.03;;
45684;SDS011;46836;48.388;16.210;2022-07-29T02:38:50;8.97;;;6.13;;
45684;SDS011;46836;48.388;16.210;2022-07-29T02:41:41;7.17;;;5.63;;
45684;SDS011;46836;48.388;16.210;2022-07-29T02:44:06;7.50;;;6.20;;
45684;SDS011;46836;48.388;16.210;2022-07-29T02:46:45;7.57;;;6.03;;
45684;SDS011;46836;48.388;16.210;2022-07-29T02:49:28;6.63;;;6.03;;
45684;SDS011;46836;48.388;16.210;2022-07-29T02:52:04;6.30;;;5.70;;
45684;SDS011;46836;48.388;16.210;2022-07-29T02:54:48;6.57;;;5.83;;
45684;SDS011;46836;48.388;16.210;2022-07-29T02:59:54;9.03;;;6.23;;
45684;SDS011;46836;48.388;16.210;2022-07-29T03:02:25;9.00;;;6.80;;
45684;SDS011;46836;48.388;16.210;2022-07-29T03:04:57;7.70;;;6.87;;
45684;SDS011;46836;48.388;16.210;2022-07-29T03:07:26;6.90;;;6.30;;
45684;SDS011;46836;48.388;16.210;2022-07-29T03:09:54;7.87;;;6.17;;
45684;SDS011;46836;48.388;16.210;2022-07-29T03:12:22;7.00;;;6.30;;
45684;SDS011;46836;48.388;16.210;2022-07-29T03:14:50;7.23;;;6.53;;
45684;SDS011;46836;48.388;16.210;2022-07-29T03:17:18;8.17;;;5.90;;
45684;SDS011;46836;48.388;16.210;2022-07-29T03:19:47;7.67;;;6.87;;
45684;SDS011;46836;48.388;16.210;2022-07-29T03:22:15;8.03;;;6.53;;
45684;SDS011;46836;48.388;16.210;2022-07-29T03:24:44;6.50;;;5.50;;
45684;SDS011;46836;48.388;16.210;2022-07-29T03:27:12;7.03;;;6.33;;
45684;SDS011;46836;48.388;16.210;2022-07-29T03:29:39;8.50;;;6.47;;
45684;SDS011;46836;48.388;16.210;2022-07-29T03:32:15;6.10;;;5.50;;
45684;SDS011;46836;48.388;16.210;2022-07-29T03:34:49;9.00;;;6.10;;
45684;SDS011;46836;48.388;16.210;2022-07-29T03:37:16;6.40;;;5.90;;
45684;SDS011;46836;48.388;16.210;2022-07-29T03:39:43;6.87;;;6.27;;
45684;SDS011;46836;48.388;16.210;2022-07-29T03:42:13;7.50;;;6.77;;
45684;SDS011;46836;48.388;16.210;2022-07-29T03:44:42;6.70;;;6.10;;
45684;SDS011;46836;48.388;16.210;2022-07-29T03:47:14;7.50;;;6.40;;
45684;SDS011;46836;48.388;16.210;2022-07-29T03:49:46;6.93;;;6.33;;
45684;SDS011;46836;48.388;16.210;2022-07-29T03:52:16;7.30;;;6.57;;
45684;SDS011;46836;48.388;16.210;2022-07-29T03:54:44;9.20;;;7.30;;
45684;SDS011;46836;48.388;16.210;2022-07-29T03:57:11;8.00;;;7.20;;
45684;SDS011;46836;48.388;16.210;2022-07-29T03:59:39;10.03;;;9.03;;
45684;SDS011;46836;48.388;16.210;2022-07-29T04:02:08;13.83;;;10.13;;
45684;SDS011;46836;48.388;16.210;2022-07-29T04:04:37;10.23;;;9.33;;
45684;SDS011;46836;48.388;16.210;2022-07-29T04:07:04;9.40;;;8.50;;
45684;SDS011;46836;48.388;16.210;2022-07-29T04:09:31;10.03;;;9.03;;
45684;SDS011;46836;48.388;16.210;2022-07-29T04:11:58;9.20;;;8.20;;
45684;SDS011;46836;48.388;16.210;2022-07-29T04:14:30;8.67;;;7.33;;
45684;SDS011;46836;48.388;16.210;2022-07-29T04:17:01;8.60;;;7.80;;
45684;SDS011;46836;48.388;16.210;2022-07-29T04:19:29;7.73;;;6.90;;
45684;SDS011;46836;48.388;16.210;2022-07-29T04:21:58;7.40;;;6.70;;
45684;SDS011;46836;48.388;16.210;2022-07-29T04:24:26;8.40;;;7.07;;
45684;SDS011;46836;48.388;16.210;2022-07-29T04:26:53;9.87;;;7.00;;
45684;SDS011;46836;48.388;16.210;2022-07-29T04:29:20;7.93;;;6.97;;
45684;SDS011;46836;48.388;16.210;2022-07-29T04:31:48;7.30;;;6.60;;
45684;SDS011;46836;48.388;16.210;2022-07-29T04:34:15;7.53;;;6.83;;
45684;SDS011;46836;48.388;16.210;2022-07-29T04:36:42;8.13;;;7.33;;
45684;SDS011;46836;48.388;16.210;2022-07-29T04:39:09;8.17;;;6.67;;
45684;SDS011;46836;48.388;16.210;2022-07-29T04:41:36;14.77;;;7.60;;
45684;SDS011;46836;48.388;16.210;2022-07-29T04:44:03;8.87;;;7.20;;
45684;SDS011;46836;48.388;16.210;2022-07-29T04:46:33;8.67;;;7.50;;
45684;SDS011;46836;48.388;16.210;2022-07-29T04:49:00;7.30;;;6.60;;
45684;SDS011;46836;48.388;16.210;2022-07-29T04:51:28;8.00;;;7.13;;
45684;SDS011;46836;48.388;16.210;2022-07-29T04:53:55;7.93;;;7.13;;
45684;SDS011;46836;48.388;16.210;2022-07-29T04:56:22;9.77;;;7.00;;
45684;SDS011;46836;48.388;16.210;2022-07-29T04:58:50;10.33;;;8.10;;
45684;SDS011;46836;48.388;16.210;2022-07-29T05:01:17;7.20;;;6.60;;
45684;SDS011;46836;48.388;16.210;2022-07-29T05:03:44;8.13;;;7.33;;
45684;SDS011;46836;48.388;16.210;2022-07-29T05:06:11;7.23;;;6.53;;
45684;SDS011;46836;48.388;16.210;2022-07-29T05:08:38;7.67;;;6.87;;
45684;SDS011;46836;48.388;16.210;2022-07-29T05:11:07;7.37;;;6.67;;
45684;SDS011;46836;48.388;16.210;2022-07-29T05:13:37;8.33;;;6.80;;
45684;SDS011;46836;48.388;16.210;2022-07-29T05:16:12;21.83;;;8.30;;
45684;SDS011;46836;48.388;16.210;2022-07-29T05:18:40;9.30;;;6.37;;
45684;SDS011;46836;48.388;16.210;2022-07-29T05:21:08;8.10;;;7.30;;
45684;SDS011;46836;48.388;16.210;2022-07-29T05:23:35;7.93;;;6.50;;
45684;SDS011;46836;48.388;16.210;2022-07-29T05:26:02;7.00;;;6.30;;
45684;SDS011;46836;48.388;16.210;2022-07-29T05:28:32;7.13;;;6.53;;
45684;SDS011;46836;48.388;16.210;2022-07-29T05:31:01;7.00;;;6.13;;
45684;SDS011;46836;48.388;16.210;2022-07-29T05:33:28;7.70;;;7.00;;
45684;SDS011;46836;48.388;16.210;2022-07-29T05:36:02;12.63;;;6.70;;
45684;SDS011;46836;48.388;16.210;2022-07-29T05:38:34;7.77;;;7.03;;
45684;SDS011;46836;48.388;16.210;2022-07-29T05:41:02;7.57;;;6.97;;
45684;SDS011;46836;48.388;16.210;2022-07-29T05:43:29;7.93;;;7.03;;
45684;SDS011;46836;48.388;16.210;2022-07-29T05:45:56;6.70;;;6.10;;
45684;SDS011;46836;48.388;16.210;2022-07-29T05:48:24;7.07;;;6.47;;
45684;SDS011;46836;48.388;16.210;2022-07-29T05:50:52;9.30;;;6.73;;
45684;SDS011;46836;48.388;16.210;2022-07-29T05:53:19;8.60;;;6.70;;
45684;SDS011;46836;48.388;16.210;2022-07-29T05:55:47;7.17;;;6.57;;
45684;SDS011;46836;48.388;16.210;2022-07-29T05:58:14;8.70;;;6.80;;
45684;SDS011;46836;48.388;16.210;2022-07-29T06:00:41;7.90;;;7.10;;
45684;SDS011;46836;48.388;16.210;2022-07-29T06:03:09;10.47;;;6.40;;
45684;SDS011;46836;48.388;16.210;2022-07-29T06:05:36;8.50;;;6.40;;
45684;SDS011;46836;48.388;16.210;2022-07-29T06:08:03;7.43;;;6.73;;
45684;SDS011;46836;48.388;16.210;2022-07-29T06:10:37;7.57;;;6.87;;
45684;SDS011;46836;48.388;16.210;2022-07-29T06:13:05;7.33;;;6.67;;
45684;SDS011;46836;48.388;16.210;2022-07-29T06:15:32;7.30;;;6.60;;
45684;SDS011;46836;48.388;16.210;2022-07-29T06:18:00;7.00;;;6.40;;
45684;SDS011;46836;48.388;16.210;2022-07-29T06:20:28;7.60;;;6.90;;
45684;SDS011;46836;48.388;16.210;2022-07-29T06:22:57;6.87;;;6.27;;
45684;SDS011;46836;48.388;16.210;2022-07-29T06:25:24;7.17;;;6.57;;
45684;SDS011;46836;48.388;16.210;2022-07-29T06:27:51;7.57;;;6.23;;
45684;SDS011;46836;48.388;16.210;2022-07-29T06:30:18;5.90;;;5.40;;
45684;SDS011;46836;48.388;16.210;2022-07-29T06:32:45;7.20;;;6.50;;
45684;SDS011;46836;48.388;16.210;2022-07-29T06:35:13;7.07;;;6.30;;
45684;SDS011;46836;48.388;16.210;2022-07-29T06:38:00;6.93;;;5.60;;
45684;SDS011;46836;48.388;16.210;2022-07-29T06:40:51;6.30;;;5.67;;
45684;SDS011;46836;48.388;16.210;2022-07-29T06:45:59;6.90;;;6.30;;
45684;SDS011;46836;48.388;16.210;2022-07-29T06:48:28;7.97;;;6.10;;
45684;SDS011;46836;48.388;16.210;2022-07-29T06:50:55;6.17;;;5.43;;
45684;SDS011;46836;48.388;16.210;2022-07-29T06:53:23;5.93;;;5.47;;
45684;SDS011;46836;48.388;16.210;2022-07-29T06:55:50;7.30;;;5.90;;
45684;SDS011;46836;48.388;16.210;2022-07-29T06:58:17;6.73;;;5.53;;
45684;SDS011;46836;48.388;16.210;2022-07-29T07:00:47;7.23;;;6.00;;
45684;SDS011;46836;48.388;16.210;2022-07-29T07:03:15;6.83;;;6.23;;
45684;SDS011;46836;48.388;16.210;2022-07-29T07:05:43;7.00;;;5.90;;
45684;SDS011;46836;48.388;16.210;2022-07-29T07:08:11;6.20;;;5.63;;
45684;SDS011;46836;48.388;16.210;2022-07-29T07:10:39;7.93;;;6.10;;
45684;SDS011;46836;48.388;16.210;2022-07-29T07:13:06;7.00;;;6.30;;
45684;SDS011;46836;48.388;16.210;2022-07-29T07:15:33;7.40;;;6.60;;
45684;SDS011;46836;48.388;16.210;2022-07-29T07:18:05;9.30;;;6.33;;
45684;SDS011;46836;48.388;16.210;2022-07-29T07:20:33;6.67;;;6.00;;
45684;SDS011;46836;48.388;16.210;2022-07-29T07:23:00;8.00;;;6.80;;
45684;SDS011;46836;48.388;16.210;2022-07-29T07:25:28;5.70;;;5.20;;
45684;SDS011;46836;48.388;16.210;2022-07-29T07:27:55;11.67;;;6.60;;
45684;SDS011;46836;48.388;16.210;2022-07-29T07:30:22;8.20;;;7.10;;
45684;SDS011;46836;48.388;16.210;2022-07-29T07:32:49;7.47;;;6.30;;
45684;SDS011;46836;48.388;16.210;2022-07-29T07:35:16;8.77;;;6.87;;
45684;SDS011;46836;48.388;16.210;2022-07-29T07:37:43;7.23;;;6.63;;
45684;SDS011;46836;48.388;16.210;2022-07-29T07:40:11;6.67;;;6.03;;
45684;SDS011;46836;48.388;16.210;2022-07-29T07:42:44;7.23;;;6.53;;
45684;SDS011;46836;48.388;16.210;2022-07-29T07:45:11;8.30;;;7.50;;
45684;SDS011;46836;48.388;16.210;2022-07-29T07:47:41;7.03;;;6.33;;
45684;SDS011;46836;48.388;16.210;2022-07-29T07:50:10;7.13;;;6.53;;
45684;SDS011;46836;48.388;16.210;2022-07-29T07:52:48;7.73;;;6.93;;
45684;SDS011;46836;48.388;16.210;2022-07-29T07:55:17;9.73;;;6.90;;
45684;SDS011;46836;48.388;16.210;2022-07-29T07:57:45;6.70;;;6.03;;
45684;SDS011;46836;48.388;16.210;2022-07-29T08:00:12;6.63;;;6.13;;
45684;SDS011;46836;48.388;16.210;2022-07-29T08:02:40;10.87;;;5.97;;
45684;SDS011;46836;48.388;16.210;2022-07-29T08:05:09;9.80;;;6.80;;
45684;SDS011;46836;48.388;16.210;2022-07-29T08:07:38;10.40;;;6.40;;
45684;SDS011;46836;48.388;16.210;2022-07-29T08:10:06;7.63;;;6.83;;
45684;SDS011;46836;48.388;16.210;2022-07-29T08:12:33;7.23;;;6.53;;
45684;SDS011;46836;48.388;16.210;2022-07-29T08:15:00;10.10;;;6.50;;
45684;SDS011;46836;48.388;16.210;2022-07-29T08:17:28;7.77;;;6.97;;
45684;SDS011;46836;48.388;16.210;2022-07-29T08:20:00;7.93;;;6.40;;
45684;SDS011;46836;48.388;16.210;2022-07-29T08:22:28;7.60;;;6.73;;
45684;SDS011;46836;48.388;16.210;2022-07-29T08:24:55;8.33;;;5.93;;
45684;SDS011;46836;48.388;16.210;2022-07-29T08:27:22;10.00;;;6.47;;
45684;SDS011;46836;48.388;16.210;2022-07-29T08:30:10;7.80;;;7.20;;
45684;SDS011;46836;48.388;16.210;2022-07-29T08:32:37;6.80;;;5.87;;
45684;SDS011;46836;48.388;16.210;2022-07-29T08:35:21;6.40;;;5.80;;
45684;SDS011;46836;48.388;16.210;2022-07-29T08:37:50;7.50;;;6.10;;
45684;SDS011;46836;48.388;16.210;2022-07-29T08:40:18;6.70;;;6.00;;
45684;SDS011;46836;48.388;16.210;2022-07-29T08:42:58;6.93;;;6.23;;
45684;SDS011;46836;48.388;16.210;2022-07-29T08:45:34;7.20;;;6.60;;
45684;SDS011;46836;48.388;16.210;2022-07-29T08:48:14;7.23;;;6.53;;
45684;SDS011;46836;48.388;16.210;2022-07-29T08:50:45;6.50;;;5.90;;
45684;SDS011;46836;48.388;16.210;2022-07-29T08:53:15;7.30;;;6.60;;
45684;SDS011;46836;48.388;16.210;2022-07-29T08:55:43;9.00;;;6.90;;
45684;SDS011;46836;48.388;16.210;2022-07-29T08:58:16;7.20;;;6.47;;
45684;SDS011;46836;48.388;16.210;2022-07-29T09:00:52;8.63;;;6.50;;
45684;SDS011;46836;48.388;16.210;2022-07-29T09:03:24;7.20;;;6.50;;
45684;SDS011;46836;48.388;16.210;2022-07-29T09:05:53;8.43;;;6.80;;
45684;SDS011;46836;48.388;16.210;2022-07-29T09:08:21;9.17;;;6.80;;
45684;SDS011;46836;48.388;16.210;2022-07-29T09:10:49;7.83;;;7.00;;
45684;SDS011;46836;48.388;16.210;2022-07-29T09:13:17;8.67;;;6.27;;
45684;SDS011;46836;48.388;16.210;2022-07-29T09:15:44;8.17;;;7.20;;
45684;SDS011;46836;48.388;16.210;2022-07-29T09:18:11;7.87;;;6.17;;
45684;SDS011;46836;48.388;16.210;2022-07-29T09:20:55;9.10;;;7.10;;
45684;SDS011;46836;48.388;16.210;2022-07-29T09:23:50;8.33;;;6.53;;
45684;SDS011;46836;48.388;16.210;2022-07-29T09:26:34;7.63;;;6.73;;
45684;SDS011;46836;48.388;16.210;2022-07-29T09:29:11;7.67;;;7.07;;
45684;SDS011;46836;48.388;16.210;2022-07-29T09:31:40;6.87;;;6.27;;
45684;SDS011;46836;48.388;16.210;2022-07-29T09:34:13;8.00;;;6.57;;
45684;SDS011;46836;48.388;16.210;2022-07-29T09:36:46;7.23;;;6.63;;
45684;SDS011;46836;48.388;16.210;2022-07-29T09:39:16;8.20;;;6.73;;
45684;SDS011;46836;48.388;16.210;2022-07-29T09:41:57;7.27;;;6.60;;
45684;SDS011;46836;48.388;16.210;2022-07-29T09:44:26;6.77;;;6.00;;
45684;SDS011;46836;48.388;16.210;2022-07-29T09:46:54;14.23;;;6.60;;
45684;SDS011;46836;48.388;16.210;2022-07-29T09:49:32;6.83;;;6.10;;
45684;SDS011;46836;48.388;16.210;2022-07-29T09:52:20;8.50;;;6.40;;
45684;SDS011;46836;48.388;16.210;2022-07-29T09:54:48;12.80;;;7.07;;
45684;SDS011;46836;48.388;16.210;2022-07-29T09:57:22;7.37;;;6.50;;
45684;SDS011;46836;48.388;16.210;2022-07-29T10:00:06;6.90;;;5.77;;
45684;SDS011;46836;48.388;16.210;2022-07-29T10:02:39;7.47;;;6.77;;
45684;SDS011;46836;48.388;16.210;2022-07-29T10:05:18;6.50;;;5.90;;
45684;SDS011;46836;48.388;16.210;2022-07-29T10:07:54;8.83;;;6.73;;
45684;SDS011;46836;48.388;16.210;2022-07-29T10:12:56;6.57;;;5.97;;
45684;SDS011;46836;48.388;16.210;2022-07-29T10:15:35;8.50;;;7.03;;
45684;SDS011;46836;48.388;16.210;2022-07-29T10:18:05;52.83;;;16.30;;
45684;SDS011;46836;48.388;16.210;2022-07-29T10:20:33;9.60;;;7.23;;
45684;SDS011;46836;48.388;16.210;2022-07-29T10:23:01;7.77;;;6.90;;
45684;SDS011;46836;48.388;16.210;2022-07-29T10:25:30;6.27;;;5.73;;
45684;SDS011;46836;48.388;16.210;2022-07-29T10:27:58;8.10;;;7.10;;
45684;SDS011;46836;48.388;16.210;2022-07-29T10:30:25;6.83;;;6.23;;
45684;SDS011;46836;48.388;16.210;2022-07-29T10:35:33;6.87;;;6.23;;
45684;SDS011;46836;48.388;16.210;2022-07-29T10:41:33;12.53;;;6.77;;
45684;SDS011;46836;48.388;16.210;2022-07-29T10:44:21;8.83;;;6.80;;
45684;SDS011;46836;48.388;16.210;2022-07-29T10:46:50;7.07;;;6.47;;
45684;SDS011;46836;48.388;16.210;2022-07-29T10:49:19;8.57;;;7.63;;
45684;SDS011;46836;48.388;16.210;2022-07-29T10:51:51;10.37;;;6.80;;
45684;SDS011;46836;48.388;16.210;2022-07-29T10:59:39;8.63;;;6.97;;
45684;SDS011;46836;48.388;16.210;2022-07-29T11:07:37;9.63;;;7.30;;
45684;SDS011;46836;48.388;16.210;2022-07-29T11:15:12;8.30;;;7.40;;
45684;SDS011;46836;48.388;16.210;2022-07-29T11:23:18;7.20;;;6.20;;
45684;SDS011;46836;48.388;16.210;2022-07-29T11:26:29;7.80;;;7.10;;
45684;SDS011;46836;48.388;16.210;2022-07-29T11:31:41;7.40;;;6.30;;
45684;SDS011;46836;48.388;16.210;2022-07-29T11:39:36;8.00;;;5.60;;
45684;SDS011;46836;48.388;16.210;2022-07-29T11:45:04;9.43;;;6.33;;
45684;SDS011;46836;48.388;16.210;2022-07-29T11:47:57;7.30;;;6.10;;
45684;SDS011;46836;48.388;16.210;2022-07-29T11:50:45;6.13;;;5.53;;
45684;SDS011;46836;48.388;16.210;2022-07-29T11:53:13;7.57;;;6.10;;
45684;SDS011;46836;48.388;16.210;2022-07-29T11:55:41;5.70;;;5.20;;
45684;SDS011;46836;48.388;16.210;2022-07-29T11:58:20;7.03;;;6.33;;
45684;SDS011;46836;48.388;16.210;2022-07-29T12:00:51;6.47;;;5.83;;
45684;SDS011;46836;48.388;16.210;2022-07-29T12:03:28;8.60;;;6.27;;
45684;SDS011;46836;48.388;16.210;2022-07-29T12:06:00;6.00;;;5.50;;
45684;SDS011;46836;48.388;16.210;2022-07-29T12:08:28;10.00;;;5.83;;
45684;SDS011;46836;48.388;16.210;2022-07-29T12:10:56;5.93;;;5.37;;
45684;SDS011;46836;48.388;16.210;2022-07-29T12:13:23;5.83;;;5.30;;
45684;SDS011;46836;48.388;16.210;2022-07-29T12:16:02;5.90;;;5.37;;
45684;SDS011;46836;48.388;16.210;2022-07-29T12:18:30;6.10;;;5.20;;
45684;SDS011;46836;48.388;16.210;2022-07-29T12:20:59;6.80;;;5.50;;
45684;SDS011;46836;48.388;16.210;2022-07-29T12:23:31;10.63;;;5.50;;
45684;SDS011;46836;48.388;16.210;2022-07-29T12:26:03;8.53;;;5.30;;
45684;SDS011;46836;48.388;16.210;2022-07-29T12:28:38;7.03;;;5.27;;
45684;SDS011;46836;48.388;16.210;2022-07-29T12:31:05;7.57;;;5.40;;
45684;SDS011;46836;48.388;16.210;2022-07-29T12:33:39;6.20;;;5.13;;
45684;SDS011;46836;48.388;16.210;2022-07-29T12:36:06;10.17;;;5.80;;
45684;SDS011;46836;48.388;16.210;2022-07-29T12:38:43;6.50;;;5.90;;
45684;SDS011;46836;48.388;16.210;2022-07-29T12:41:10;5.60;;;5.10;;
45684;SDS011;46836;48.388;16.210;2022-07-29T12:43:53;6.57;;;5.73;;
45684;SDS011;46836;48.388;16.210;2022-07-29T12:46:20;6.83;;;6.10;;
45684;SDS011;46836;48.388;16.210;2022-07-29T12:48:51;5.20;;;4.80;;
45684;SDS011;46836;48.388;16.210;2022-07-29T12:51:37;5.30;;;4.90;;
45684;SDS011;46836;48.388;16.210;2022-07-29T12:54:09;5.17;;;4.77;;
45684;SDS011;46836;48.388;16.210;2022-07-29T12:56:39;7.27;;;5.40;;
45684;SDS011;46836;48.388;16.210;2022-07-29T12:59:17;6.10;;;5.07;;
45684;SDS011;46836;48.388;16.210;2022-07-29T13:01:46;5.53;;;4.90;;
45684;SDS011;46836;48.388;16.210;2022-07-29T13:04:29;5.23;;;4.63;;
45684;SDS011;46836;48.388;16.210;2022-07-29T13:07:02;5.43;;;4.93;;
45684;SDS011;46836;48.388;16.210;2022-07-29T13:09:39;5.17;;;4.77;;
45684;SDS011;46836;48.388;16.210;2022-07-29T13:12:09;8.20;;;5.27;;
45684;SDS011;46836;48.388;16.210;2022-07-29T13:14:39;6.43;;;5.83;;
45684;SDS011;46836;48.388;16.210;2022-07-29T13:17:17;6.20;;;5.30;;
45684;SDS011;46836;48.388;16.210;2022-07-29T13:20:07;6.63;;;5.43;;
45684;SDS011;46836;48.388;16.210;2022-07-29T13:22:38;6.17;;;5.63;;
45684;SDS011;46836;48.388;16.210;2022-07-29T13:25:06;7.37;;;5.43;;
45684;SDS011;46836;48.388;16.210;2022-07-29T13:27:35;6.20;;;5.50;;
45684;SDS011;46836;48.388;16.210;2022-07-29T13:30:05;6.87;;;4.80;;
45684;SDS011;46836;48.388;16.210;2022-07-29T13:32:34;6.00;;;5.07;;
45684;SDS011;46836;48.388;16.210;2022-07-29T13:35:04;11.13;;;5.90;;
45684;SDS011;46836;48.388;16.210;2022-07-29T13:37:33;5.40;;;5.00;;
45684;SDS011;46836;48.388;16.210;2022-07-29T13:40:04;5.70;;;5.20;;
45684;SDS011;46836;48.388;16.210;2022-07-29T13:42:33;5.60;;;5.10;;
45684;SDS011;46836;48.388;16.210;2022-07-29T13:45:00;6.83;;;6.10;;
45684;SDS011;46836;48.388;16.210;2022-07-29T13:47:28;7.00;;;6.20;;
45684;SDS011;46836;48.388;16.210;2022-07-29T13:50:01;6.77;;;6.17;;
45684;SDS011;46836;48.388;16.210;2022-07-29T13:52:36;7.33;;;6.83;;
45684;SDS011;46836;48.388;16.210;2022-07-29T13:55:04;6.67;;;6.07;;
45684;SDS011;46836;48.388;16.210;2022-07-29T13:57:32;8.37;;;6.60;;
45684;SDS011;46836;48.388;16.210;2022-07-29T13:59:59;6.87;;;6.27;;
45684;SDS011;46836;48.388;16.210;2022-07-29T14:02:26;7.37;;;6.63;;
45684;SDS011;46836;48.388;16.210;2022-07-29T14:04:53;7.23;;;6.57;;
45684;SDS011;46836;48.388;16.210;2022-07-29T14:07:21;7.90;;;7.20;;
45684;SDS011;46836;48.388;16.210;2022-07-29T14:09:49;7.27;;;6.57;;
45684;SDS011;46836;48.388;16.210;2022-07-29T14:12:17;10.90;;;7.57;;
45684;SDS011;46836;48.388;16.210;2022-07-29T14:14:44;8.40;;;7.60;;
45684;SDS011;46836;48.388;16.210;2022-07-29T14:17:12;9.20;;;8.27;;
45684;SDS011;46836;48.388;16.210;2022-07-29T14:19:40;10.00;;;9.00;;
45684;SDS011;46836;48.388;16.210;2022-07-29T14:22:08;9.00;;;8.10;;
45684;SDS011;46836;48.388;16.210;2022-07-29T14:24:36;10.57;;;9.50;;
45684;SDS011;46836;48.388;16.210;2022-07-29T14:27:04;23.07;;;15.47;;
45684;SDS011;46836;48.388;16.210;2022-07-29T14:29:32;24.97;;;19.53;;
45684;SDS011;46836;48.388;16.210;2022-07-29T14:32:07;14.47;;;11.30;;
45684;SDS011;46836;48.388;16.210;2022-07-29T14:34:37;12.73;;;11.53;;
45684;SDS011;46836;48.388;16.210;2022-07-29T14:37:04;11.20;;;10.10;;
45684;SDS011;46836;48.388;16.210;2022-07-29T14:39:33;11.07;;;10.07;;
45684;SDS011;46836;48.388;16.210;2022-07-29T14:42:09;10.27;;;9.30;;
45684;SDS011;46836;48.388;16.210;2022-07-29T14:44:39;10.30;;;9.40;;
45684;SDS011;46836;48.388;16.210;2022-07-29T14:47:08;10.50;;;8.60;;
45684;SDS011;46836;48.388;16.210;2022-07-29T14:49:35;10.43;;;9.20;;
45684;SDS011;46836;48.388;16.210;2022-07-29T14:52:02;10.20;;;9.30;;
45684;SDS011;46836;48.388;16.210;2022-07-29T14:54:29;10.17;;;9.17;;
45684;SDS011;46836;48.388;16.210;2022-07-29T14:56:56;9.90;;;9.00;;
45684;SDS011;46836;48.388;16.210;2022-07-29T14:59:24;9.93;;;8.97;;
45684;SDS011;46836;48.388;16.210;2022-07-29T15:01:52;10.50;;;9.40;;
45684;SDS011;46836;48.388;16.210;2022-07-29T15:04:20;9.63;;;8.83;;
45684;SDS011;46836;48.388;16.210;2022-07-29T15:06:47;8.60;;;7.80;;
45684;SDS011;46836;48.388;16.210;2022-07-29T15:09:14;8.80;;;8.10;;
45684;SDS011;46836;48.388;16.210;2022-07-29T15:11:41;9.90;;;9.10;;
45684;SDS011;46836;48.388;16.210;2022-07-29T15:14:08;8.30;;;7.60;;
45684;SDS011;46836;48.388;16.210;2022-07-29T15:16:36;10.43;;;8.87;;
45684;SDS011;46836;48.388;16.210;2022-07-29T15:19:07;9.13;;;8.43;;
45684;SDS011;46836;48.388;16.210;2022-07-29T15:21:35;8.70;;;7.87;;
45684;SDS011;46836;48.388;16.210;2022-07-29T15:24:14;9.40;;;8.57;;
45684;SDS011;46836;48.388;16.210;2022-07-29T15:26:44;9.00;;;8.23;;
45684;SDS011;46836;48.388;16.210;2022-07-29T15:29:12;9.60;;;8.80;;
45684;SDS011;46836;48.388;16.210;2022-07-29T15:31:39;9.70;;;8.70;;
45684;SDS011;46836;48.388;16.210;2022-07-29T15:34:07;8.87;;;8.07;;
45684;SDS011;46836;48.388;16.210;2022-07-29T15:36:34;9.50;;;8.60;;
45684;SDS011;46836;48.388;16.210;2022-07-29T15:39:18;10.10;;;9.27;;
45684;SDS011;46836;48.388;16.210;2022-07-29T15:41:46;10.20;;;9.30;;
45684;SDS011;46836;48.388;16.210;2022-07-29T15:44:13;11.20;;;9.33;;
45684;SDS011;46836;48.388;16.210;2022-07-29T15:46:40;10.77;;;9.87;;
45684;SDS011;46836;48.388;16.210;2022-07-29T15:49:27;11.90;;;10.80;;
45684;SDS011;46836;48.388;16.210;2022-07-29T15:52:15;10.10;;;9.20;;